sensor_id;sensor_type;location;lat;lon;timestamp;temperature;humidity
5394;DHT22;2720;52.396;10.064;2023-03-14T00:01:00;9.20;99.90
5394;DHT22;2720;52.396;10.064;2023-03-14T00:03:33;9.10;99.90
5394;DHT22;2720;52.396;10.064;2023-03-14T00:06:04;9.00;99.90
5394;DHT22;2720;52.396;10.064;2023-03-14T00:08:31;8.90;99.90
5394;DHT22;2720;52.396;10.064;2023-03-14T00:10:58;8.90;99.90
5394;DHT22;2720;52.396;10.064;2023-03-14T00:13:30;8.90;99.90
5394;DHT22;2720;52.396;10.064;2023-03-14T00:16:02;8.80;99.90
5394;DHT22;2720;52.396;10.064;2023-03-14T00:18:29;8.80;99.90
5394;DHT22;2720;52.396;10.064;2023-03-14T00:20:57;8.70;99.90
5394;DHT22;2720;52.396;10.064;2023-03-14T00:23:26;8.80;99.90
5394;DHT22;2720;52.396;10.064;2023-03-14T00:25:57;8.90;99.90
5394;DHT22;2720;52.396;10.064;2023-03-14T00:28:25;9.00;99.90
5394;DHT22;2720;52.396;10.064;2023-03-14T00:30:51;9.00;99.90
5394;DHT22;2720;52.396;10.064;2023-03-14T00:33:18;9.10;99.90
5394;DHT22;2720;52.396;10.064;2023-03-14T00:35:53;9.10;99.90
5394;DHT22;2720;52.396;10.064;2023-03-14T00:38:20;9.20;99.90
5394;DHT22;2720;52.396;10.064;2023-03-14T00:40:48;9.20;99.90
5394;DHT22;2720;52.396;10.064;2023-03-14T00:43:15;9.20;99.90
5394;DHT22;2720;52.396;10.064;2023-03-14T00:45:42;9.20;99.90
5394;DHT22;2720;52.396;10.064;2023-03-14T00:48:09;9.20;99.90
5394;DHT22;2720;52.396;10.064;2023-03-14T00:50:36;9.20;99.90
5394;DHT22;2720;52.396;10.064;2023-03-14T00:53:03;9.20;99.90
5394;DHT22;2720;52.396;10.064;2023-03-14T00:55:30;9.20;99.90
5394;DHT22;2720;52.396;10.064;2023-03-14T00:57:58;9.20;99.90
5394;DHT22;2720;52.396;10.064;2023-03-14T01:00:25;9.20;99.90
5394;DHT22;2720;52.396;10.064;2023-03-14T01:02:52;9.30;99.90
5394;DHT22;2720;52.396;10.064;2023-03-14T01:05:19;9.30;99.90
5394;DHT22;2720;52.396;10.064;2023-03-14T01:07:48;9.30;99.90
5394;DHT22;2720;52.396;10.064;2023-03-14T01:12:42;9.40;99.90
5394;DHT22;2720;52.396;10.064;2023-03-14T01:15:10;9.30;99.90
5394;DHT22;2720;52.396;10.064;2023-03-14T01:17:37;9.30;99.90
5394;DHT22;2720;52.396;10.064;2023-03-14T01:20:06;9.30;99.90
5394;DHT22;2720;52.396;10.064;2023-03-14T01:22:34;9.30;99.90
5394;DHT22;2720;52.396;10.064;2023-03-14T01:25:01;9.40;99.90
5394;DHT22;2720;52.396;10.064;2023-03-14T01:27:29;9.50;99.90
5394;DHT22;2720;52.396;10.064;2023-03-14T01:29:55;9.60;99.90
5394;DHT22;2720;52.396;10.064;2023-03-14T01:32:24;9.70;99.90
5394;DHT22;2720;52.396;10.064;2023-03-14T01:34:51;9.70;99.90
5394;DHT22;2720;52.396;10.064;2023-03-14T01:37:18;9.80;99.90
5394;DHT22;2720;52.396;10.064;2023-03-14T01:39:46;9.80;99.90
5394;DHT22;2720;52.396;10.064;2023-03-14T01:42:14;9.80;99.90
5394;DHT22;2720;52.396;10.064;2023-03-14T01:44:49;9.80;99.90
5394;DHT22;2720;52.396;10.064;2023-03-14T01:47:16;9.90;99.90
5394;DHT22;2720;52.396;10.064;2023-03-14T01:49:46;9.90;99.90
5394;DHT22;2720;52.396;10.064;2023-03-14T01:52:16;9.90;99.90
5394;DHT22;2720;52.396;10.064;2023-03-14T01:54:48;10.00;99.90
5394;DHT22;2720;52.396;10.064;2023-03-14T01:57:20;9.90;99.90
5394;DHT22;2720;52.396;10.064;2023-03-14T01:59:51;9.90;99.90
5394;DHT22;2720;52.396;10.064;2023-03-14T02:02:19;9.90;99.90
5394;DHT22;2720;52.396;10.064;2023-03-14T02:04:48;9.90;99.90
5394;DHT22;2720;52.396;10.064;2023-03-14T02:07:18;9.80;99.90
5394;DHT22;2720;52.396;10.064;2023-03-14T02:09:46;9.80;99.90
5394;DHT22;2720;52.396;10.064;2023-03-14T02:12:16;9.80;99.90
5394;DHT22;2720;52.396;10.064;2023-03-14T02:14:44;9.80;99.90
5394;DHT22;2720;52.396;10.064;2023-03-14T02:17:14;9.90;99.90
5394;DHT22;2720;52.396;10.064;2023-03-14T02:19:56;9.90;99.90
5394;DHT22;2720;52.396;10.064;2023-03-14T02:22:25;9.80;99.90
5394;DHT22;2720;52.396;10.064;2023-03-14T02:24:58;9.80;99.90
5394;DHT22;2720;52.396;10.064;2023-03-14T02:27:28;9.80;99.90
5394;DHT22;2720;52.396;10.064;2023-03-14T02:29:58;9.90;99.90
5394;DHT22;2720;52.396;10.064;2023-03-14T02:32:28;9.90;99.90
5394;DHT22;2720;52.396;10.064;2023-03-14T02:34:58;10.00;99.90
5394;DHT22;2720;52.396;10.064;2023-03-14T02:37:32;10.00;99.90
5394;DHT22;2720;52.396;10.064;2023-03-14T02:40:01;10.00;99.90
5394;DHT22;2720;52.396;10.064;2023-03-14T02:42:31;10.10;99.90
5394;DHT22;2720;52.396;10.064;2023-03-14T02:45:25;10.10;99.90
5394;DHT22;2720;52.396;10.064;2023-03-14T02:47:51;10.10;99.90
5394;DHT22;2720;52.396;10.064;2023-03-14T02:50:21;10.00;99.90
5394;DHT22;2720;52.396;10.064;2023-03-14T02:52:49;10.00;99.90
5394;DHT22;2720;52.396;10.064;2023-03-14T02:55:20;10.00;99.90
5394;DHT22;2720;52.396;10.064;2023-03-14T02:57:48;10.00;99.90
5394;DHT22;2720;52.396;10.064;2023-03-14T03:00:16;10.00;99.90
5394;DHT22;2720;52.396;10.064;2023-03-14T03:02:43;10.00;99.90
5394;DHT22;2720;52.396;10.064;2023-03-14T03:05:10;9.90;99.90
5394;DHT22;2720;52.396;10.064;2023-03-14T03:07:37;9.90;99.90
5394;DHT22;2720;52.396;10.064;2023-03-14T03:10:05;9.80;99.90
5394;DHT22;2720;52.396;10.064;2023-03-14T03:12:32;9.70;99.90
5394;DHT22;2720;52.396;10.064;2023-03-14T03:15:00;9.60;99.90
5394;DHT22;2720;52.396;10.064;2023-03-14T03:17:27;9.60;99.90
5394;DHT22;2720;52.396;10.064;2023-03-14T03:19:54;9.60;99.90
5394;DHT22;2720;52.396;10.064;2023-03-14T03:22:21;9.60;99.90
5394;DHT22;2720;52.396;10.064;2023-03-14T03:24:49;9.70;99.90
5394;DHT22;2720;52.396;10.064;2023-03-14T03:27:16;9.70;99.90
5394;DHT22;2720;52.396;10.064;2023-03-14T03:29:43;9.80;99.90
5394;DHT22;2720;52.396;10.064;2023-03-14T03:32:11;9.90;99.90
5394;DHT22;2720;52.396;10.064;2023-03-14T03:34:38;9.90;99.90
5394;DHT22;2720;52.396;10.064;2023-03-14T03:37:05;9.90;99.90
5394;DHT22;2720;52.396;10.064;2023-03-14T03:39:32;9.80;99.90
5394;DHT22;2720;52.396;10.064;2023-03-14T03:41:59;9.70;99.90
5394;DHT22;2720;52.396;10.064;2023-03-14T03:44:26;9.70;99.90
5394;DHT22;2720;52.396;10.064;2023-03-14T03:46:53;9.70;99.90
5394;DHT22;2720;52.396;10.064;2023-03-14T03:49:21;9.80;99.90
5394;DHT22;2720;52.396;10.064;2023-03-14T03:51:48;9.80;99.90
5394;DHT22;2720;52.396;10.064;2023-03-14T03:54:15;9.80;99.90
5394;DHT22;2720;52.396;10.064;2023-03-14T03:56:42;9.90;99.90
5394;DHT22;2720;52.396;10.064;2023-03-14T03:59:09;9.90;99.90
5394;DHT22;2720;52.396;10.064;2023-03-14T04:01:36;9.90;99.90
5394;DHT22;2720;52.396;10.064;2023-03-14T04:04:03;9.90;99.90
5394;DHT22;2720;52.396;10.064;2023-03-14T04:06:31;9.90;99.90
5394;DHT22;2720;52.396;10.064;2023-03-14T04:08:58;9.90;99.90
5394;DHT22;2720;52.396;10.064;2023-03-14T04:11:25;9.90;99.90
5394;DHT22;2720;52.396;10.064;2023-03-14T04:13:52;9.80;99.90
5394;DHT22;2720;52.396;10.064;2023-03-14T04:16:21;9.70;99.90
5394;DHT22;2720;52.396;10.064;2023-03-14T04:18:48;9.50;99.90
5394;DHT22;2720;52.396;10.064;2023-03-14T04:21:16;9.40;99.90
5394;DHT22;2720;52.396;10.064;2023-03-14T04:23:44;9.30;99.90
5394;DHT22;2720;52.396;10.064;2023-03-14T04:26:11;9.10;99.90
5394;DHT22;2720;52.396;10.064;2023-03-14T04:28:38;9.10;99.90
5394;DHT22;2720;52.396;10.064;2023-03-14T04:31:09;8.90;99.90
5394;DHT22;2720;52.396;10.064;2023-03-14T04:33:36;8.90;99.90
5394;DHT22;2720;52.396;10.064;2023-03-14T04:36:04;8.80;99.90
5394;DHT22;2720;52.396;10.064;2023-03-14T04:38:31;8.80;99.90
5394;DHT22;2720;52.396;10.064;2023-03-14T04:41:00;8.70;99.90
5394;DHT22;2720;52.396;10.064;2023-03-14T04:43:27;8.60;99.90
5394;DHT22;2720;52.396;10.064;2023-03-14T04:45:54;8.50;99.90
5394;DHT22;2720;52.396;10.064;2023-03-14T04:48:21;8.30;99.90
5394;DHT22;2720;52.396;10.064;2023-03-14T04:50:48;8.20;99.90
5394;DHT22;2720;52.396;10.064;2023-03-14T04:53:16;8.00;99.90
5394;DHT22;2720;52.396;10.064;2023-03-14T04:55:48;7.90;99.90
5394;DHT22;2720;52.396;10.064;2023-03-14T04:58:16;7.80;99.90
5394;DHT22;2720;52.396;10.064;2023-03-14T05:00:43;7.70;99.90
5394;DHT22;2720;52.396;10.064;2023-03-14T05:03:10;7.70;99.90
5394;DHT22;2720;52.396;10.064;2023-03-14T05:05:37;7.70;99.90
5394;DHT22;2720;52.396;10.064;2023-03-14T05:08:04;7.60;99.90
5394;DHT22;2720;52.396;10.064;2023-03-14T05:10:31;7.50;99.90
5394;DHT22;2720;52.396;10.064;2023-03-14T05:12:58;7.50;99.90
5394;DHT22;2720;52.396;10.064;2023-03-14T05:15:26;7.40;99.90
5394;DHT22;2720;52.396;10.064;2023-03-14T05:17:53;7.30;99.90
5394;DHT22;2720;52.396;10.064;2023-03-14T05:20:20;7.30;99.90
5394;DHT22;2720;52.396;10.064;2023-03-14T05:22:47;7.40;99.90
5394;DHT22;2720;52.396;10.064;2023-03-14T05:25:14;7.40;99.90
5394;DHT22;2720;52.396;10.064;2023-03-14T05:27:41;7.40;99.90
5394;DHT22;2720;52.396;10.064;2023-03-14T05:30:09;7.50;99.90
5394;DHT22;2720;52.396;10.064;2023-03-14T05:32:38;7.50;99.90
5394;DHT22;2720;52.396;10.064;2023-03-14T05:35:05;7.50;99.90
5394;DHT22;2720;52.396;10.064;2023-03-14T05:37:32;7.50;99.90
5394;DHT22;2720;52.396;10.064;2023-03-14T05:40:00;7.40;99.90
5394;DHT22;2720;52.396;10.064;2023-03-14T05:42:27;7.40;99.90
5394;DHT22;2720;52.396;10.064;2023-03-14T05:44:54;7.40;99.90
5394;DHT22;2720;52.396;10.064;2023-03-14T05:47:21;7.40;99.90
5394;DHT22;2720;52.396;10.064;2023-03-14T05:49:49;7.40;99.90
5394;DHT22;2720;52.396;10.064;2023-03-14T05:52:17;7.40;99.90
5394;DHT22;2720;52.396;10.064;2023-03-14T05:54:44;7.40;99.90
5394;DHT22;2720;52.396;10.064;2023-03-14T05:57:11;7.30;99.90
5394;DHT22;2720;52.396;10.064;2023-03-14T05:59:37;7.40;99.90
5394;DHT22;2720;52.396;10.064;2023-03-14T06:02:04;7.40;99.90
5394;DHT22;2720;52.396;10.064;2023-03-14T06:04:31;7.50;99.90
5394;DHT22;2720;52.396;10.064;2023-03-14T06:07:00;7.60;99.90
5394;DHT22;2720;52.396;10.064;2023-03-14T06:09:27;7.70;99.90
5394;DHT22;2720;52.396;10.064;2023-03-14T06:11:54;7.70;99.90
5394;DHT22;2720;52.396;10.064;2023-03-14T06:14:21;7.90;99.90
5394;DHT22;2720;52.396;10.064;2023-03-14T06:16:47;7.90;99.90
5394;DHT22;2720;52.396;10.064;2023-03-14T06:19:16;8.00;99.90
5394;DHT22;2720;52.396;10.064;2023-03-14T06:21:43;8.00;99.90
5394;DHT22;2720;52.396;10.064;2023-03-14T06:24:11;8.00;99.90
5394;DHT22;2720;52.396;10.064;2023-03-14T06:26:38;8.10;99.90
5394;DHT22;2720;52.396;10.064;2023-03-14T06:29:05;8.20;99.90
5394;DHT22;2720;52.396;10.064;2023-03-14T06:31:33;8.30;99.90
5394;DHT22;2720;52.396;10.064;2023-03-14T06:34:00;8.50;99.90
5394;DHT22;2720;52.396;10.064;2023-03-14T06:36:27;8.70;99.90
5394;DHT22;2720;52.396;10.064;2023-03-14T06:38:54;9.00;99.90
5394;DHT22;2720;52.396;10.064;2023-03-14T06:41:23;9.20;99.90
5394;DHT22;2720;52.396;10.064;2023-03-14T06:43:52;9.30;99.90
5394;DHT22;2720;52.396;10.064;2023-03-14T06:46:19;9.40;99.90
5394;DHT22;2720;52.396;10.064;2023-03-14T06:48:46;9.40;99.90
5394;DHT22;2720;52.396;10.064;2023-03-14T06:51:13;9.40;99.90
5394;DHT22;2720;52.396;10.064;2023-03-14T06:53:40;9.40;99.90
5394;DHT22;2720;52.396;10.064;2023-03-14T06:56:08;9.40;99.90
5394;DHT22;2720;52.396;10.064;2023-03-14T06:58:36;9.40;99.90
5394;DHT22;2720;52.396;10.064;2023-03-14T07:01:03;9.40;99.90
5394;DHT22;2720;52.396;10.064;2023-03-14T07:03:30;9.40;99.90
5394;DHT22;2720;52.396;10.064;2023-03-14T07:05:57;9.40;99.90
5394;DHT22;2720;52.396;10.064;2023-03-14T07:08:25;9.50;99.90
5394;DHT22;2720;52.396;10.064;2023-03-14T07:10:52;9.60;99.90
5394;DHT22;2720;52.396;10.064;2023-03-14T07:13:19;9.60;99.90
5394;DHT22;2720;52.396;10.064;2023-03-14T07:15:47;9.60;99.90
5394;DHT22;2720;52.396;10.064;2023-03-14T07:18:14;9.60;99.90
5394;DHT22;2720;52.396;10.064;2023-03-14T07:20:41;9.60;99.90
5394;DHT22;2720;52.396;10.064;2023-03-14T07:23:08;9.70;99.90
5394;DHT22;2720;52.396;10.064;2023-03-14T07:25:35;9.70;99.90
5394;DHT22;2720;52.396;10.064;2023-03-14T07:28:02;9.80;99.90
5394;DHT22;2720;52.396;10.064;2023-03-14T07:30:29;9.70;99.90
5394;DHT22;2720;52.396;10.064;2023-03-14T07:32:57;9.70;99.90
5394;DHT22;2720;52.396;10.064;2023-03-14T07:35:24;9.60;99.90
5394;DHT22;2720;52.396;10.064;2023-03-14T07:37:51;9.70;99.90
5394;DHT22;2720;52.396;10.064;2023-03-14T07:40:18;9.70;99.90
5394;DHT22;2720;52.396;10.064;2023-03-14T07:42:45;9.70;99.90
5394;DHT22;2720;52.396;10.064;2023-03-14T07:45:12;9.80;99.90
5394;DHT22;2720;52.396;10.064;2023-03-14T07:47:39;9.80;99.90
5394;DHT22;2720;52.396;10.064;2023-03-14T07:50:09;9.90;99.90
5394;DHT22;2720;52.396;10.064;2023-03-14T07:52:36;10.00;99.90
5394;DHT22;2720;52.396;10.064;2023-03-14T07:55:03;9.90;99.90
5394;DHT22;2720;52.396;10.064;2023-03-14T07:57:31;9.80;99.90
5394;DHT22;2720;52.396;10.064;2023-03-14T07:59:58;9.80;99.90
5394;DHT22;2720;52.396;10.064;2023-03-14T08:02:25;9.70;99.90
5394;DHT22;2720;52.396;10.064;2023-03-14T08:04:51;9.60;99.90
5394;DHT22;2720;52.396;10.064;2023-03-14T08:07:20;9.60;99.90
5394;DHT22;2720;52.396;10.064;2023-03-14T08:09:47;9.60;99.90
5394;DHT22;2720;52.396;10.064;2023-03-14T08:12:14;9.50;99.90
5394;DHT22;2720;52.396;10.064;2023-03-14T08:14:41;9.40;99.90
5394;DHT22;2720;52.396;10.064;2023-03-14T08:17:08;9.30;99.90
5394;DHT22;2720;52.396;10.064;2023-03-14T08:19:35;9.30;99.90
5394;DHT22;2720;52.396;10.064;2023-03-14T08:22:02;9.30;99.90
5394;DHT22;2720;52.396;10.064;2023-03-14T08:24:31;9.30;99.90
5394;DHT22;2720;52.396;10.064;2023-03-14T08:26:58;9.30;99.90
5394;DHT22;2720;52.396;10.064;2023-03-14T08:29:25;9.30;99.90
5394;DHT22;2720;52.396;10.064;2023-03-14T08:31:52;9.20;99.90
5394;DHT22;2720;52.396;10.064;2023-03-14T08:34:20;9.30;99.90
5394;DHT22;2720;52.396;10.064;2023-03-14T08:36:47;9.50;99.90
5394;DHT22;2720;52.396;10.064;2023-03-14T08:39:14;9.60;99.90
5394;DHT22;2720;52.396;10.064;2023-03-14T08:41:42;9.70;99.90
5394;DHT22;2720;52.396;10.064;2023-03-14T08:44:10;9.80;99.90
5394;DHT22;2720;52.396;10.064;2023-03-14T08:46:38;9.70;99.90
5394;DHT22;2720;52.396;10.064;2023-03-14T08:49:05;9.80;99.90
5394;DHT22;2720;52.396;10.064;2023-03-14T08:51:32;9.80;99.90
5394;DHT22;2720;52.396;10.064;2023-03-14T08:53:58;9.90;99.90
5394;DHT22;2720;52.396;10.064;2023-03-14T08:56:25;9.90;99.90
5394;DHT22;2720;52.396;10.064;2023-03-14T08:58:54;10.10;99.90
5394;DHT22;2720;52.396;10.064;2023-03-14T09:01:21;10.30;99.90
5394;DHT22;2720;52.396;10.064;2023-03-14T09:03:49;10.50;99.90
5394;DHT22;2720;52.396;10.064;2023-03-14T09:06:17;10.60;99.90
5394;DHT22;2720;52.396;10.064;2023-03-14T09:08:44;10.70;99.90
5394;DHT22;2720;52.396;10.064;2023-03-14T09:11:12;10.60;99.90
5394;DHT22;2720;52.396;10.064;2023-03-14T09:13:39;10.70;99.90
5394;DHT22;2720;52.396;10.064;2023-03-14T09:16:08;10.80;99.90
5394;DHT22;2720;52.396;10.064;2023-03-14T09:18:35;10.90;99.90
5394;DHT22;2720;52.396;10.064;2023-03-14T09:21:03;11.10;99.90
5394;DHT22;2720;52.396;10.064;2023-03-14T09:23:30;11.10;99.90
5394;DHT22;2720;52.396;10.064;2023-03-14T09:25:57;11.30;99.90
5394;DHT22;2720;52.396;10.064;2023-03-14T09:28:24;11.60;99.90
5394;DHT22;2720;52.396;10.064;2023-03-14T09:30:51;11.70;99.90
5394;DHT22;2720;52.396;10.064;2023-03-14T09:35:48;11.90;99.90
5394;DHT22;2720;52.396;10.064;2023-03-14T09:38:15;11.90;99.90
5394;DHT22;2720;52.396;10.064;2023-03-14T09:40:43;11.90;99.90
5394;DHT22;2720;52.396;10.064;2023-03-14T09:43:11;11.90;99.90
5394;DHT22;2720;52.396;10.064;2023-03-14T09:45:40;11.80;99.90
5394;DHT22;2720;52.396;10.064;2023-03-14T09:48:14;11.70;99.90
5394;DHT22;2720;52.396;10.064;2023-03-14T09:50:46;11.50;99.90
5394;DHT22;2720;52.396;10.064;2023-03-14T09:53:17;11.60;99.90
5394;DHT22;2720;52.396;10.064;2023-03-14T09:55:45;11.60;99.90
5394;DHT22;2720;52.396;10.064;2023-03-14T09:58:16;11.50;99.90
5394;DHT22;2720;52.396;10.064;2023-03-14T10:00:44;11.40;99.90
5394;DHT22;2720;52.396;10.064;2023-03-14T10:03:25;11.40;99.90
5394;DHT22;2720;52.396;10.064;2023-03-14T10:05:55;11.40;99.90
5394;DHT22;2720;52.396;10.064;2023-03-14T10:08:22;11.40;99.90
5394;DHT22;2720;52.396;10.064;2023-03-14T10:10:49;11.40;99.90
5394;DHT22;2720;52.396;10.064;2023-03-14T10:13:18;11.30;99.90
5394;DHT22;2720;52.396;10.064;2023-03-14T10:15:50;11.40;99.90
5394;DHT22;2720;52.396;10.064;2023-03-14T10:18:18;11.50;99.90
5394;DHT22;2720;52.396;10.064;2023-03-14T10:20:46;11.60;99.90
5394;DHT22;2720;52.396;10.064;2023-03-14T10:23:24;11.90;99.90
5394;DHT22;2720;52.396;10.064;2023-03-14T10:26:03;12.10;99.90
5394;DHT22;2720;52.396;10.064;2023-03-14T10:28:32;12.40;99.90
5394;DHT22;2720;52.396;10.064;2023-03-14T10:30:59;12.60;99.90
5394;DHT22;2720;52.396;10.064;2023-03-14T10:33:28;12.80;99.90
5394;DHT22;2720;52.396;10.064;2023-03-14T10:35:57;12.80;99.90
5394;DHT22;2720;52.396;10.064;2023-03-14T10:38:27;13.00;99.90
5394;DHT22;2720;52.396;10.064;2023-03-14T10:40:55;13.30;99.90
5394;DHT22;2720;52.396;10.064;2023-03-14T10:43:26;13.30;99.90
5394;DHT22;2720;52.396;10.064;2023-03-14T10:45:55;13.10;99.90
5394;DHT22;2720;52.396;10.064;2023-03-14T10:48:29;13.00;99.90
5394;DHT22;2720;52.396;10.064;2023-03-14T10:50:58;12.90;99.90
5394;DHT22;2720;52.396;10.064;2023-03-14T10:53:33;12.80;99.90
5394;DHT22;2720;52.396;10.064;2023-03-14T10:56:03;12.50;99.90
5394;DHT22;2720;52.396;10.064;2023-03-14T10:58:40;12.60;99.90
5394;DHT22;2720;52.396;10.064;2023-03-14T11:01:17;12.50;99.90
5394;DHT22;2720;52.396;10.064;2023-03-14T11:03:52;12.40;99.90
5394;DHT22;2720;52.396;10.064;2023-03-14T11:06:25;12.20;99.90
5394;DHT22;2720;52.396;10.064;2023-03-14T11:08:59;12.10;99.90
5394;DHT22;2720;52.396;10.064;2023-03-14T11:11:31;12.20;99.90
5394;DHT22;2720;52.396;10.064;2023-03-14T11:14:08;12.30;99.90
5394;DHT22;2720;52.396;10.064;2023-03-14T11:16:46;12.60;99.90
5394;DHT22;2720;52.396;10.064;2023-03-14T11:19:34;12.80;99.90
5394;DHT22;2720;52.396;10.064;2023-03-14T11:22:13;13.10;99.90
5394;DHT22;2720;52.396;10.064;2023-03-14T11:27:51;13.50;99.90
5394;DHT22;2720;52.396;10.064;2023-03-14T11:30:25;13.80;99.90
5394;DHT22;2720;52.396;10.064;2023-03-14T11:32:58;13.70;99.90
5394;DHT22;2720;52.396;10.064;2023-03-14T11:35:30;13.50;99.90
5394;DHT22;2720;52.396;10.064;2023-03-14T11:38:10;13.40;99.90
5394;DHT22;2720;52.396;10.064;2023-03-14T11:40:39;12.90;99.90
5394;DHT22;2720;52.396;10.064;2023-03-14T11:43:13;12.50;99.90
5394;DHT22;2720;52.396;10.064;2023-03-14T11:45:43;11.10;99.90
5394;DHT22;2720;52.396;10.064;2023-03-14T11:48:18;9.00;99.90
5394;DHT22;2720;52.396;10.064;2023-03-14T11:50:50;7.50;99.90
5394;DHT22;2720;52.396;10.064;2023-03-14T11:53:21;6.90;99.90
5394;DHT22;2720;52.396;10.064;2023-03-14T11:55:49;6.70;99.90
5394;DHT22;2720;52.396;10.064;2023-03-14T11:58:20;6.50;99.90
5394;DHT22;2720;52.396;10.064;2023-03-14T12:00:51;6.50;99.90
5394;DHT22;2720;52.396;10.064;2023-03-14T12:03:26;6.50;99.90
5394;DHT22;2720;52.396;10.064;2023-03-14T12:06:02;6.50;99.90
5394;DHT22;2720;52.396;10.064;2023-03-14T12:08:43;6.50;99.90
5394;DHT22;2720;52.396;10.064;2023-03-14T12:11:15;6.50;99.90
5394;DHT22;2720;52.396;10.064;2023-03-14T12:13:48;6.50;99.90
5394;DHT22;2720;52.396;10.064;2023-03-14T12:16:38;6.40;99.90
5394;DHT22;2720;52.396;10.064;2023-03-14T12:19:30;6.30;99.90
5394;DHT22;2720;52.396;10.064;2023-03-14T12:22:01;6.10;99.90
5394;DHT22;2720;52.396;10.064;2023-03-14T12:24:34;6.10;99.90
5394;DHT22;2720;52.396;10.064;2023-03-14T12:27:04;6.00;99.90
5394;DHT22;2720;52.396;10.064;2023-03-14T12:29:58;5.90;99.90
5394;DHT22;2720;52.396;10.064;2023-03-14T12:32:25;5.60;99.90
5394;DHT22;2720;52.396;10.064;2023-03-14T12:34:53;5.40;99.90
5394;DHT22;2720;52.396;10.064;2023-03-14T12:37:26;5.10;99.90
5394;DHT22;2720;52.396;10.064;2023-03-14T12:40:09;5.00;99.90
5394;DHT22;2720;52.396;10.064;2023-03-14T12:42:43;4.90;99.90
5394;DHT22;2720;52.396;10.064;2023-03-14T12:45:23;4.80;99.90
5394;DHT22;2720;52.396;10.064;2023-03-14T12:48:03;4.70;99.90
5394;DHT22;2720;52.396;10.064;2023-03-14T12:50:35;4.60;99.90
5394;DHT22;2720;52.396;10.064;2023-03-14T12:53:23;4.50;99.90
5394;DHT22;2720;52.396;10.064;2023-03-14T12:56:00;4.30;99.90
5394;DHT22;2720;52.396;10.064;2023-03-14T12:58:32;4.20;99.90
5394;DHT22;2720;52.396;10.064;2023-03-14T13:01:05;4.20;99.90
5394;DHT22;2720;52.396;10.064;2023-03-14T13:03:43;4.10;99.90
5394;DHT22;2720;52.396;10.064;2023-03-14T13:06:11;4.10;99.90
5394;DHT22;2720;52.396;10.064;2023-03-14T13:08:40;4.10;99.90
5394;DHT22;2720;52.396;10.064;2023-03-14T13:11:13;4.10;99.90
5394;DHT22;2720;52.396;10.064;2023-03-14T13:13:45;4.10;99.90
5394;DHT22;2720;52.396;10.064;2023-03-14T13:16:16;4.10;99.90
5394;DHT22;2720;52.396;10.064;2023-03-14T13:18:45;4.10;99.90
5394;DHT22;2720;52.396;10.064;2023-03-14T13:21:15;4.10;99.90
5394;DHT22;2720;52.396;10.064;2023-03-14T13:23:56;4.10;99.90
5394;DHT22;2720;52.396;10.064;2023-03-14T13:26:26;4.20;99.90
5394;DHT22;2720;52.396;10.064;2023-03-14T13:28:58;4.30;99.90
5394;DHT22;2720;52.396;10.064;2023-03-14T13:31:26;4.30;99.90
5394;DHT22;2720;52.396;10.064;2023-03-14T13:33:59;4.30;99.90
5394;DHT22;2720;52.396;10.064;2023-03-14T13:36:27;4.40;99.90
5394;DHT22;2720;52.396;10.064;2023-03-14T13:38:58;4.40;99.90
5394;DHT22;2720;52.396;10.064;2023-03-14T13:41:27;4.40;99.90
5394;DHT22;2720;52.396;10.064;2023-03-14T13:44:01;4.50;99.90
5394;DHT22;2720;52.396;10.064;2023-03-14T13:46:33;4.60;99.90
5394;DHT22;2720;52.396;10.064;2023-03-14T13:49:02;4.70;99.90
5394;DHT22;2720;52.396;10.064;2023-03-14T13:51:30;4.80;99.90
5394;DHT22;2720;52.396;10.064;2023-03-14T13:54:00;4.80;99.90
5394;DHT22;2720;52.396;10.064;2023-03-14T13:56:30;4.80;99.90
5394;DHT22;2720;52.396;10.064;2023-03-14T13:58:57;4.90;99.90
5394;DHT22;2720;52.396;10.064;2023-03-14T14:01:26;4.90;99.90
5394;DHT22;2720;52.396;10.064;2023-03-14T14:03:57;5.10;99.90
5394;DHT22;2720;52.396;10.064;2023-03-14T14:06:30;5.20;99.90
5394;DHT22;2720;52.396;10.064;2023-03-14T14:08:59;5.20;99.90
5394;DHT22;2720;52.396;10.064;2023-03-14T14:11:41;5.30;99.90
5394;DHT22;2720;52.396;10.064;2023-03-14T14:14:12;5.50;99.90
5394;DHT22;2720;52.396;10.064;2023-03-14T14:16:43;5.70;99.90
5394;DHT22;2720;52.396;10.064;2023-03-14T14:19:13;5.70;99.90
5394;DHT22;2720;52.396;10.064;2023-03-14T14:21:40;5.70;99.90
5394;DHT22;2720;52.396;10.064;2023-03-14T14:24:08;5.40;99.90
5394;DHT22;2720;52.396;10.064;2023-03-14T14:26:40;5.10;99.90
5394;DHT22;2720;52.396;10.064;2023-03-14T14:29:27;4.60;99.90
5394;DHT22;2720;52.396;10.064;2023-03-14T14:32:11;4.30;99.90
5394;DHT22;2720;52.396;10.064;2023-03-14T14:34:42;4.20;99.90
5394;DHT22;2720;52.396;10.064;2023-03-14T14:37:22;4.20;99.90
5394;DHT22;2720;52.396;10.064;2023-03-14T14:39:51;4.20;99.90
5394;DHT22;2720;52.396;10.064;2023-03-14T14:42:20;4.40;99.90
5394;DHT22;2720;52.396;10.064;2023-03-14T14:44:49;4.50;99.90
5394;DHT22;2720;52.396;10.064;2023-03-14T14:47:20;4.60;99.90
5394;DHT22;2720;52.396;10.064;2023-03-14T14:49:49;4.70;99.90
5394;DHT22;2720;52.396;10.064;2023-03-14T14:52:19;4.80;99.90
5394;DHT22;2720;52.396;10.064;2023-03-14T14:54:48;4.90;99.90
5394;DHT22;2720;52.396;10.064;2023-03-14T14:57:22;4.90;99.90
5394;DHT22;2720;52.396;10.064;2023-03-14T14:59:50;4.90;99.90
5394;DHT22;2720;52.396;10.064;2023-03-14T15:02:31;4.90;99.90
5394;DHT22;2720;52.396;10.064;2023-03-14T15:05:00;5.00;99.90
5394;DHT22;2720;52.396;10.064;2023-03-14T15:07:27;5.00;99.90
5394;DHT22;2720;52.396;10.064;2023-03-14T15:09:54;4.90;99.90
5394;DHT22;2720;52.396;10.064;2023-03-14T15:12:21;5.00;99.90
5394;DHT22;2720;52.396;10.064;2023-03-14T15:14:50;4.90;99.90
5394;DHT22;2720;52.396;10.064;2023-03-14T15:17:17;4.90;99.90
5394;DHT22;2720;52.396;10.064;2023-03-14T15:19:44;4.90;99.90
5394;DHT22;2720;52.396;10.064;2023-03-14T15:22:13;4.90;99.90
5394;DHT22;2720;52.396;10.064;2023-03-14T15:24:40;4.90;99.90
5394;DHT22;2720;52.396;10.064;2023-03-14T15:27:13;4.90;99.90
5394;DHT22;2720;52.396;10.064;2023-03-14T15:29:41;4.90;99.90
5394;DHT22;2720;52.396;10.064;2023-03-14T15:32:11;4.90;99.90
5394;DHT22;2720;52.396;10.064;2023-03-14T15:34:38;4.90;99.90
5394;DHT22;2720;52.396;10.064;2023-03-14T15:37:07;4.90;99.90
5394;DHT22;2720;52.396;10.064;2023-03-14T15:39:36;4.90;99.90
5394;DHT22;2720;52.396;10.064;2023-03-14T15:42:04;4.90;99.90
5394;DHT22;2720;52.396;10.064;2023-03-14T15:44:31;4.90;99.90
5394;DHT22;2720;52.396;10.064;2023-03-14T15:46:58;4.90;99.90
5394;DHT22;2720;52.396;10.064;2023-03-14T15:49:25;5.00;99.90
5394;DHT22;2720;52.396;10.064;2023-03-14T15:51:52;5.10;99.90
5394;DHT22;2720;52.396;10.064;2023-03-14T15:54:19;5.20;99.90
5394;DHT22;2720;52.396;10.064;2023-03-14T15:56:47;5.20;99.90
5394;DHT22;2720;52.396;10.064;2023-03-14T15:59:14;5.30;99.90
5394;DHT22;2720;52.396;10.064;2023-03-14T16:01:41;5.40;99.90
5394;DHT22;2720;52.396;10.064;2023-03-14T16:04:08;5.40;99.90
5394;DHT22;2720;52.396;10.064;2023-03-14T16:06:35;5.40;99.90
5394;DHT22;2720;52.396;10.064;2023-03-14T16:09:02;5.30;99.90
5394;DHT22;2720;52.396;10.064;2023-03-14T16:11:29;5.30;99.90
5394;DHT22;2720;52.396;10.064;2023-03-14T16:13:58;5.10;99.90
5394;DHT22;2720;52.396;10.064;2023-03-14T16:16:25;5.00;99.90
5394;DHT22;2720;52.396;10.064;2023-03-14T16:18:52;4.90;99.90
5394;DHT22;2720;52.396;10.064;2023-03-14T16:21:19;4.90;99.90